createdAt,value
2022-11-11T00:01:14.079Z,4.23
2022-11-11T00:03:41.726Z,4.03
2022-11-11T00:06:15.809Z,3.57
2022-11-11T00:08:42.871Z,3.83
2022-11-11T00:11:11.530Z,4.00
2022-11-11T00:13:39.828Z,3.80
2022-11-11T00:16:15.133Z,3.70
2022-11-11T00:19:00.967Z,3.53
2022-11-11T00:21:46.836Z,3.90
2022-11-11T00:24:40.662Z,3.97
2022-11-11T00:27:08.635Z,3.83
2022-11-11T00:29:35.360Z,3.53
2022-11-11T00:32:20.672Z,3.70
2022-11-11T00:35:07.191Z,3.97
2022-11-11T00:37:34.831Z,3.20
2022-11-11T00:40:01.785Z,3.63
2022-11-11T00:42:28.653Z,3.73
2022-11-11T00:44:55.744Z,3.63
2022-11-11T00:47:40.923Z,4.10
2022-11-11T00:50:39.510Z,3.63
2022-11-11T00:53:11.066Z,3.17
2022-11-11T00:55:37.659Z,3.77
2022-11-11T00:58:04.337Z,3.93
2022-11-11T01:00:31.286Z,4.53
2022-11-11T01:02:59.045Z,3.93
2022-11-11T01:05:26.342Z,3.60
2022-11-11T01:07:53.033Z,3.30
2022-11-11T01:10:38.880Z,3.63
2022-11-11T01:13:13.131Z,3.13
2022-11-11T01:15:46.036Z,2.90
2022-11-11T01:18:14.622Z,3.57
2022-11-11T01:20:41.716Z,3.40
2022-11-11T01:23:10.487Z,2.97
2022-11-11T01:25:38.456Z,3.17
2022-11-11T01:28:05.960Z,3.50
2022-11-11T01:30:34.332Z,3.40
2022-11-11T01:33:02.394Z,3.30
2022-11-11T01:35:29.387Z,3.40
2022-11-11T01:37:58.279Z,3.07
2022-11-11T01:40:25.402Z,3.60
2022-11-11T01:43:13.505Z,3.53
2022-11-11T01:45:49.173Z,3.03
2022-11-11T01:48:53.859Z,3.13
2022-11-11T01:51:45.640Z,3.20
2022-11-11T01:54:27.613Z,3.00
2022-11-11T01:57:07.362Z,3.00
2022-11-11T01:59:36.311Z,3.13
2022-11-11T02:02:09.573Z,3.10
2022-11-11T02:04:56.194Z,2.70
2022-11-11T02:07:23.545Z,3.20
2022-11-11T02:09:52.293Z,3.00
2022-11-11T02:12:37.416Z,3.20
2022-11-11T02:15:05.061Z,3.00
2022-11-11T02:17:33.034Z,3.30
2022-11-11T02:20:02.053Z,2.60
2022-11-11T02:22:32.889Z,2.73
2022-11-11T02:25:01.532Z,2.93
2022-11-11T02:27:30.951Z,3.20
2022-11-11T02:30:00.856Z,3.20
2022-11-11T02:32:27.460Z,3.13
2022-11-11T02:34:54.024Z,2.93
2022-11-11T02:37:23.779Z,2.93
2022-11-11T02:40:03.856Z,2.97
2022-11-11T02:42:33.324Z,2.50
2022-11-11T02:44:59.990Z,2.60
2022-11-11T02:47:27.379Z,3.37
2022-11-11T02:49:54.292Z,2.93
2022-11-11T02:52:21.680Z,3.10
2022-11-11T02:54:49.293Z,3.17
2022-11-11T02:57:17.084Z,2.77
2022-11-11T02:59:43.694Z,3.90
2022-11-11T03:02:10.320Z,3.10
2022-11-11T03:04:38.099Z,2.87
2022-11-11T03:07:05.433Z,2.90
2022-11-11T03:09:32.356Z,3.10
2022-11-11T03:11:59.545Z,3.30
2022-11-11T03:14:26.555Z,2.70
2022-11-11T03:17:12.847Z,3.10
2022-11-11T03:19:39.721Z,2.87
2022-11-11T03:25:11.244Z,2.90
2022-11-11T03:27:37.745Z,2.87
2022-11-11T03:30:04.710Z,3.70
2022-11-11T03:32:31.209Z,3.40
2022-11-11T03:34:57.725Z,2.43
2022-11-11T03:37:42.661Z,2.53
2022-11-11T03:40:09.965Z,2.60
2022-11-11T03:42:37.126Z,3.00
2022-11-11T03:45:03.904Z,2.63
2022-11-11T03:47:30.481Z,3.03
2022-11-11T03:49:56.994Z,3.00
2022-11-11T03:52:23.503Z,2.60
2022-11-11T03:54:50.022Z,2.63
2022-11-11T03:57:32.056Z,3.13
2022-11-11T03:59:58.992Z,2.77
2022-11-11T04:02:44.189Z,3.03
2022-11-11T04:05:29.623Z,2.57
2022-11-11T04:08:14.937Z,2.60
2022-11-11T04:10:41.470Z,3.23
2022-11-11T04:13:26.940Z,2.50
2022-11-11T04:16:09.111Z,2.70
2022-11-11T04:18:55.038Z,2.90
2022-11-11T04:21:40.929Z,2.70
2022-11-11T04:24:26.922Z,2.77
2022-11-11T04:26:55.155Z,2.80
2022-11-11T04:29:28.282Z,2.97
2022-11-11T04:32:27.315Z,2.50
2022-11-11T04:34:58.952Z,3.07
2022-11-11T04:37:27.542Z,2.40
2022-11-11T04:40:13.408Z,2.50
2022-11-11T04:42:39.965Z,2.60
2022-11-11T04:45:27.917Z,2.93
2022-11-11T04:47:56.769Z,2.60
2022-11-11T04:50:24.781Z,2.40
2022-11-11T04:52:51.314Z,2.53
2022-11-11T04:55:36.870Z,2.47
2022-11-11T04:58:03.727Z,2.60
2022-11-11T05:00:31.796Z,2.70
2022-11-11T05:03:17.116Z,2.33
2022-11-11T05:06:13.252Z,2.23
2022-11-11T05:08:58.728Z,2.70
2022-11-11T05:11:30.547Z,3.00
2022-11-11T05:14:17.722Z,2.73
2022-11-11T05:17:11.300Z,2.37
2022-11-11T05:19:57.208Z,2.80
2022-11-11T05:22:30.781Z,2.83
2022-11-11T05:25:16.090Z,2.43
2022-11-11T05:27:42.625Z,2.67
2022-11-11T05:30:11.268Z,2.83
2022-11-11T05:32:38.981Z,2.70
2022-11-11T05:35:06.346Z,2.47
2022-11-11T05:37:33.189Z,2.83
2022-11-11T05:39:59.945Z,2.10
2022-11-11T05:42:26.498Z,2.53
2022-11-11T05:44:53.053Z,2.20
2022-11-11T05:47:19.834Z,2.83
2022-11-11T05:49:46.400Z,2.67
2022-11-11T05:52:16.040Z,2.97
2022-11-11T05:54:42.830Z,2.40
2022-11-11T05:57:10.085Z,2.40
2022-11-11T05:59:36.862Z,2.70
2022-11-11T06:02:03.844Z,2.83
2022-11-11T06:04:30.395Z,2.50
2022-11-11T06:06:56.991Z,2.80
2022-11-11T06:09:23.542Z,2.70
2022-11-11T06:11:50.060Z,2.33
2022-11-11T06:14:16.718Z,3.70
2022-11-11T06:16:43.264Z,2.80
2022-11-11T06:19:10.455Z,2.50
2022-11-11T06:21:56.786Z,2.70
2022-11-11T06:24:26.343Z,2.97
2022-11-11T06:26:54.498Z,2.33
2022-11-11T06:29:21.055Z,2.63
2022-11-11T06:31:47.602Z,2.47
2022-11-11T06:34:14.320Z,3.00
2022-11-11T06:36:40.885Z,2.90
2022-11-11T06:39:07.430Z,2.23
2022-11-11T06:41:33.969Z,3.00
2022-11-11T06:44:00.515Z,2.57
2022-11-11T06:46:27.221Z,2.70
2022-11-11T06:48:53.884Z,2.37
2022-11-11T06:51:20.489Z,2.27
2022-11-11T06:53:47.041Z,2.23
2022-11-11T06:56:13.737Z,2.87
2022-11-11T06:58:40.731Z,2.70
2022-11-11T07:01:08.633Z,2.53
2022-11-11T07:03:35.925Z,2.37
2022-11-11T07:06:04.118Z,2.23
2022-11-11T07:08:31.196Z,2.43
2022-11-11T07:10:57.748Z,2.47
2022-11-11T07:13:24.661Z,2.50
2022-11-11T07:15:51.233Z,2.67
2022-11-11T07:18:17.834Z,2.40
2022-11-11T07:20:44.350Z,2.90
2022-11-11T07:23:10.966Z,3.17
2022-11-11T07:25:37.521Z,2.13
2022-11-11T07:28:04.148Z,2.60
2022-11-11T07:30:30.743Z,2.40
2022-11-11T07:32:57.341Z,2.77
2022-11-11T07:35:24.130Z,2.57
2022-11-11T07:37:51.055Z,2.13
2022-11-11T07:40:18.792Z,2.67
2022-11-11T07:42:45.724Z,2.60
2022-11-11T07:45:13.554Z,2.33
2022-11-11T07:47:42.767Z,2.27
2022-11-11T07:50:10.298Z,2.40
2022-11-11T07:52:37.270Z,2.37
2022-11-11T07:55:05.275Z,3.13
2022-11-11T07:57:31.849Z,2.63
2022-11-11T07:59:58.459Z,2.60
2022-11-11T08:02:25.001Z,2.50
2022-11-11T08:04:55.296Z,2.30
2022-11-11T08:07:23.855Z,2.77
2022-11-11T08:09:51.386Z,2.57
2022-11-11T08:12:37.095Z,3.00
2022-11-11T08:15:07.244Z,2.07
2022-11-11T08:17:39.184Z,2.60
2022-11-11T08:20:08.388Z,2.13
2022-11-11T08:22:51.646Z,2.70
2022-11-11T08:25:30.490Z,3.13
2022-11-11T08:28:01.692Z,2.00
2022-11-11T08:30:29.180Z,2.13
2022-11-11T08:33:32.924Z,2.50
2022-11-11T08:35:53.490Z,2.67
2022-11-11T08:38:21.074Z,2.20
2022-11-11T08:40:47.651Z,2.37
2022-11-11T08:43:14.156Z,2.73
2022-11-11T08:45:40.702Z,2.60
2022-11-11T08:48:11.843Z,2.47
2022-11-11T08:50:39.647Z,2.23
2022-11-11T08:53:08.094Z,2.30
2022-11-11T08:55:38.031Z,2.00
2022-11-11T08:58:06.678Z,2.10
2022-11-11T09:00:34.479Z,2.13
2022-11-11T09:03:06.257Z,5.70
2022-11-11T09:05:33.501Z,5.50
2022-11-11T09:08:08.284Z,5.73
2022-11-11T09:10:35.789Z,5.50
2022-11-11T09:13:03.126Z,6.47
2022-11-11T09:15:30.010Z,6.70
2022-11-11T09:17:56.652Z,6.50
2022-11-11T09:20:25.363Z,7.03
2022-11-11T09:22:52.990Z,8.33
2022-11-11T09:25:20.244Z,7.37
2022-11-11T09:27:57.779Z,7.13
2022-11-11T09:30:25.249Z,8.63
2022-11-11T09:32:52.139Z,8.90
2022-11-11T09:35:18.923Z,9.40
2022-11-11T09:37:59.811Z,8.27
2022-11-11T09:41:02.984Z,8.03
2022-11-11T09:43:42.322Z,7.63
2022-11-11T09:46:39.277Z,7.40
2022-11-11T09:49:29.989Z,7.47
2022-11-11T09:52:10.464Z,6.17
2022-11-11T09:54:42.562Z,6.27
2022-11-11T09:57:22.568Z,4.30
2022-11-11T09:59:54.735Z,4.33
2022-11-11T10:02:32.294Z,5.00
2022-11-11T10:05:07.264Z,4.77
2022-11-11T10:07:52.424Z,3.70
2022-11-11T10:10:45.176Z,3.70
2022-11-11T10:13:29.828Z,4.20
2022-11-11T10:16:21.317Z,3.97
2022-11-11T10:19:25.380Z,3.70
2022-11-11T10:22:13.648Z,4.20
2022-11-11T10:24:47.131Z,3.80
2022-11-11T10:27:21.568Z,4.10
2022-11-11T10:29:50.001Z,3.93
2022-11-11T10:32:27.167Z,3.13
2022-11-11T10:34:57.478Z,3.73
2022-11-11T10:37:30.365Z,3.33
2022-11-11T10:40:15.395Z,4.43
2022-11-11T10:42:43.915Z,3.10
2022-11-11T10:45:40.746Z,3.27
2022-11-11T10:48:09.712Z,3.37
2022-11-11T10:50:41.214Z,3.17
2022-11-11T10:53:47.090Z,3.77
2022-11-11T10:56:23.685Z,3.63
2022-11-11T10:58:54.029Z,3.87
2022-11-11T11:01:28.255Z,2.93
2022-11-11T11:04:10.694Z,3.90
2022-11-11T11:06:41.132Z,3.40
2022-11-11T11:09:37.671Z,3.33
2022-11-11T11:12:10.758Z,3.30
2022-11-11T11:14:41.875Z,3.33
2022-11-11T11:17:15.290Z,3.23
2022-11-11T11:19:41.851Z,2.83
2022-11-11T11:22:08.566Z,2.63
2022-11-11T11:24:43.630Z,2.60
2022-11-11T11:27:10.802Z,3.60
2022-11-11T11:29:38.761Z,3.10
2022-11-11T11:32:30.810Z,3.20
2022-11-11T11:34:57.722Z,2.93
2022-11-11T11:37:26.710Z,3.40
2022-11-11T11:40:05.534Z,3.23
2022-11-11T11:42:37.000Z,3.27
2022-11-11T11:45:29.458Z,2.77
2022-11-11T11:48:41.511Z,3.10
2022-11-11T11:51:18.751Z,3.10
2022-11-11T11:54:22.784Z,3.20
2022-11-11T11:56:52.279Z,2.97
2022-11-11T11:59:21.562Z,3.13
2022-11-11T12:02:32.291Z,3.17
2022-11-11T12:05:33.814Z,2.80
2022-11-11T12:08:03.110Z,3.43
2022-11-11T12:10:43.777Z,3.20
2022-11-11T12:13:44.332Z,2.70
2022-11-11T12:17:07.315Z,2.80
2022-11-11T12:20:07.346Z,2.80
2022-11-11T12:22:46.191Z,3.20
2022-11-11T12:25:29.887Z,3.30
2022-11-11T12:27:56.485Z,2.60
2022-11-11T12:30:30.927Z,2.80
2022-11-11T12:33:32.713Z,2.83
2022-11-11T12:36:16.566Z,2.67
2022-11-11T12:38:53.397Z,2.73
2022-11-11T12:41:43.634Z,2.80
2022-11-11T12:44:14.597Z,3.23
2022-11-11T12:47:05.822Z,2.37
2022-11-11T12:49:43.118Z,2.50
2022-11-11T12:52:35.784Z,2.60
2022-11-11T12:55:28.423Z,2.63
2022-11-11T12:58:06.821Z,2.73
2022-11-11T13:00:38.891Z,2.73
2022-11-11T13:03:30.598Z,2.90
2022-11-11T13:06:06.494Z,2.60
2022-11-11T13:09:03.489Z,2.30
2022-11-11T13:11:50.279Z,2.63
2022-11-11T13:14:38.691Z,2.87
2022-11-11T13:17:11.760Z,2.87
2022-11-11T13:19:54.773Z,2.90
2022-11-11T13:22:27.319Z,2.77
2022-11-11T13:24:58.574Z,2.67
2022-11-11T13:27:44.057Z,2.60
2022-11-11T13:30:25.802Z,2.90
2022-11-11T13:33:00.494Z,2.60
2022-11-11T13:35:40.707Z,3.33
2022-11-11T13:38:21.627Z,2.20
2022-11-11T13:40:52.294Z,2.50
2022-11-11T13:43:24.070Z,2.90
2022-11-11T13:45:54.114Z,2.33
2022-11-11T13:48:27.942Z,2.67
2022-11-11T13:51:12.533Z,2.70
2022-11-11T13:53:40.775Z,2.60
2022-11-11T13:56:09.519Z,2.90
2022-11-11T13:58:47.510Z,2.77
2022-11-11T14:01:14.444Z,2.83
2022-11-11T14:03:59.790Z,2.50
2022-11-11T14:06:53.432Z,3.03
2022-11-11T14:09:52.693Z,2.90
2022-11-11T14:12:40.046Z,3.10
2022-11-11T14:15:32.463Z,3.87
2022-11-11T14:17:59.377Z,3.30
2022-11-11T14:20:37.996Z,3.33
2022-11-11T14:23:22.602Z,2.80
2022-11-11T14:25:51.738Z,3.30
2022-11-11T14:28:26.207Z,3.30
2022-11-11T14:30:52.807Z,3.37
2022-11-11T14:33:31.885Z,3.40
2022-11-11T14:36:23.603Z,3.40
2022-11-11T14:39:06.982Z,3.17
2022-11-11T14:41:50.695Z,2.97
2022-11-11T14:44:29.154Z,2.80
2022-11-11T14:47:17.905Z,3.30
2022-11-11T14:49:45.720Z,3.20
2022-11-11T14:52:30.679Z,3.00
2022-11-11T14:55:03.139Z,3.33
2022-11-11T14:57:35.208Z,3.20
2022-11-11T15:00:05.106Z,3.13
2022-11-11T15:02:36.307Z,3.00
2022-11-11T15:05:06.094Z,3.10
2022-11-11T15:07:51.365Z,3.17
2022-11-11T15:10:31.461Z,2.93
2022-11-11T15:13:19.393Z,2.87
2022-11-11T15:16:00.230Z,3.40
2022-11-11T15:19:03.073Z,3.07
2022-11-11T15:21:39.242Z,3.60
2022-11-11T15:24:40.526Z,3.57
2022-11-11T15:27:13.392Z,3.13
2022-11-11T15:30:10.682Z,3.17
2022-11-11T15:33:06.583Z,3.23
2022-11-11T15:35:48.594Z,3.00
2022-11-11T15:38:18.665Z,2.80
2022-11-11T15:41:00.296Z,3.33
2022-11-11T15:43:33.033Z,3.23
2022-11-11T15:46:02.538Z,2.90
2022-11-11T15:48:36.555Z,3.27
2022-11-11T15:51:28.853Z,3.23
2022-11-11T15:54:08.787Z,3.57
2022-11-11T15:56:35.307Z,3.40
2022-11-11T15:59:32.095Z,3.00
2022-11-11T16:01:59.212Z,3.37
2022-11-11T16:07:24.226Z,3.30
2022-11-11T16:09:51.163Z,3.10
2022-11-11T16:12:32.900Z,3.37
2022-11-11T16:15:02.048Z,3.43
2022-11-11T16:17:32.674Z,3.03
2022-11-11T16:19:59.581Z,3.00
2022-11-11T16:22:33.913Z,3.80
2022-11-11T16:25:03.598Z,3.33
2022-11-11T16:27:32.649Z,3.50
2022-11-11T16:30:34.177Z,3.50
2022-11-11T16:33:01.227Z,3.33
2022-11-11T16:35:39.853Z,3.53
2022-11-11T16:38:06.493Z,3.13
2022-11-11T16:40:32.979Z,4.07
2022-11-11T16:43:21.967Z,3.47
2022-11-11T16:45:53.119Z,3.50
2022-11-11T16:48:36.679Z,3.70
2022-11-11T16:51:05.757Z,3.37
2022-11-11T16:53:37.141Z,3.27
2022-11-11T16:56:05.029Z,3.33
2022-11-11T16:58:32.174Z,3.57
2022-11-11T17:01:01.593Z,3.50
2022-11-11T17:03:28.950Z,3.93
2022-11-11T17:05:58.534Z,3.47
2022-11-11T17:08:31.373Z,3.40
2022-11-11T17:10:59.313Z,3.43
2022-11-11T17:13:27.375Z,3.40
2022-11-11T17:15:55.729Z,3.40
2022-11-11T17:18:22.367Z,3.07
2022-11-11T17:20:49.263Z,3.33
2022-11-11T17:23:16.450Z,3.87
2022-11-11T17:25:43.352Z,3.70
2022-11-11T17:28:09.878Z,3.30
2022-11-11T17:30:37.467Z,3.77
2022-11-11T17:33:04.865Z,8.53
2022-11-11T17:35:31.393Z,15.97
2022-11-11T17:37:57.914Z,16.97
2022-11-11T17:40:24.494Z,18.33
2022-11-11T17:42:51.020Z,18.43
2022-11-11T17:45:17.657Z,21.27
2022-11-11T17:47:44.326Z,21.73
2022-11-11T17:50:11.103Z,20.10
2022-11-11T17:52:37.808Z,20.63
2022-11-11T17:55:05.311Z,19.03
2022-11-11T17:57:32.189Z,20.27
2022-11-11T17:59:58.693Z,19.37
2022-11-11T18:02:25.189Z,18.93
2022-11-11T18:04:51.994Z,17.87
2022-11-11T18:07:18.598Z,18.90
2022-11-11T18:09:45.262Z,17.87
2022-11-11T18:12:12.061Z,17.73
2022-11-11T18:14:38.576Z,17.03
2022-11-11T18:17:05.143Z,18.03
2022-11-11T18:19:31.674Z,15.83
2022-11-11T18:21:58.178Z,14.80
2022-11-11T18:24:24.690Z,13.03
2022-11-11T18:26:51.204Z,12.97
2022-11-11T18:29:17.754Z,12.87
2022-11-11T18:31:44.334Z,12.00
2022-11-11T18:34:10.929Z,12.73
2022-11-11T18:36:37.466Z,12.00
2022-11-11T18:39:04.116Z,12.07
2022-11-11T18:41:30.637Z,11.90
2022-11-11T18:43:58.692Z,12.33
2022-11-11T18:46:29.758Z,11.37
2022-11-11T18:48:59.124Z,11.23
2022-11-11T18:51:26.920Z,10.50
2022-11-11T18:53:53.495Z,10.57
2022-11-11T18:56:22.976Z,10.30
2022-11-11T18:58:54.829Z,11.40
2022-11-11T19:01:24.997Z,10.27
2022-11-11T19:03:57.658Z,10.27
2022-11-11T19:06:26.281Z,11.07
2022-11-11T19:09:01.480Z,10.23
2022-11-11T19:11:30.734Z,10.43
2022-11-11T19:13:57.269Z,9.37
2022-11-11T19:16:24.473Z,9.60
2022-11-11T19:18:52.539Z,9.97
2022-11-11T19:21:24.319Z,9.93
2022-11-11T19:23:53.292Z,9.73
2022-11-11T19:26:21.461Z,8.90
2022-11-11T19:28:48.205Z,9.00
2022-11-11T19:31:20.370Z,9.13
2022-11-11T19:33:53.110Z,8.83
2022-11-11T19:36:24.584Z,9.40
2022-11-11T19:38:51.242Z,8.40
2022-11-11T19:41:23.509Z,8.63
2022-11-11T19:43:53.188Z,8.77
2022-11-11T19:46:21.352Z,9.23
2022-11-11T19:48:48.801Z,8.77
2022-11-11T19:51:18.415Z,8.97
2022-11-11T19:53:53.589Z,8.67
2022-11-11T19:56:23.526Z,9.47
2022-11-11T20:01:24.528Z,8.43
2022-11-11T20:14:13.417Z,9.10
2022-11-11T20:21:44.336Z,8.40
2022-11-11T20:29:14.962Z,9.27
2022-11-11T20:36:45.663Z,8.60
2022-11-11T20:41:43.713Z,8.60
2022-11-11T20:49:13.762Z,8.67
2022-11-11T20:56:45.331Z,7.80
2022-11-11T21:01:43.445Z,7.27
2022-11-11T21:11:44.608Z,7.50
2022-11-11T21:19:14.764Z,8.53
2022-11-11T21:24:13.855Z,7.87
2022-11-11T21:31:44.401Z,7.23
2022-11-11T21:36:44.068Z,8.10
2022-11-11T21:44:13.951Z,7.77
2022-11-11T21:51:43.403Z,6.93
2022-11-11T21:59:13.836Z,7.40
2022-11-11T22:04:13.661Z,7.33
2022-11-11T22:11:43.526Z,7.50
2022-11-11T22:16:43.483Z,7.03
2022-11-11T22:34:24.037Z,7.67
2022-11-11T22:41:53.729Z,6.73
2022-11-11T22:44:21.026Z,7.17
2022-11-11T22:46:47.614Z,6.97
2022-11-11T22:49:14.192Z,7.20
2022-11-11T22:54:17.109Z,7.87
2022-11-11T22:56:43.817Z,6.47
2022-11-11T23:04:13.506Z,6.37
2022-11-11T23:09:13.237Z,6.57
2022-11-11T23:14:14.426Z,6.87
2022-11-11T23:21:44.322Z,7.10
2022-11-11T23:26:43.487Z,6.97
2022-11-11T23:36:44.599Z,6.20
2022-11-11T23:44:14.057Z,6.90
2022-11-11T23:51:43.496Z,6.70
